createdAt,value
2022-11-16T00:02:13.890Z,6.74
2022-11-16T00:05:16.651Z,6.59
2022-11-16T00:08:19.024Z,6.52
2022-11-16T00:11:21.646Z,6.54
2022-11-16T00:14:26.140Z,6.49
2022-11-16T00:17:28.705Z,6.45
2022-11-16T00:20:31.159Z,6.44
2022-11-16T00:23:38.229Z,6.47
2022-11-16T00:26:41.586Z,6.56
2022-11-16T00:29:45.913Z,6.51
2022-11-16T00:32:48.230Z,6.48
2022-11-16T00:35:51.051Z,6.55
2022-11-16T00:38:54.144Z,6.56
2022-11-16T00:41:57.082Z,6.55
2022-11-16T00:44:59.873Z,6.52
2022-11-16T00:48:02.746Z,6.55
2022-11-16T00:51:06.052Z,6.60
2022-11-16T00:54:09.443Z,6.61
2022-11-16T00:57:12.605Z,6.74
2022-11-16T01:00:16.581Z,6.67
2022-11-16T01:03:19.354Z,6.65
2022-11-16T01:06:23.523Z,6.63
2022-11-16T01:09:26.042Z,6.60
2022-11-16T01:12:28.736Z,6.56
2022-11-16T01:15:31.538Z,6.74
2022-11-16T01:18:34.313Z,6.73
2022-11-16T01:21:36.926Z,6.76
2022-11-16T01:24:39.557Z,6.73
2022-11-16T01:27:43.479Z,6.80
2022-11-16T01:30:52.247Z,6.78
2022-11-16T01:33:55.170Z,6.75
2022-11-16T01:37:04.034Z,6.74
2022-11-16T01:40:10.626Z,6.74
2022-11-16T01:43:23.259Z,6.76
2022-11-16T01:46:28.781Z,6.78
2022-11-16T01:49:36.405Z,6.83
2022-11-16T01:52:45.580Z,6.82
2022-11-16T01:55:49.757Z,6.82
2022-11-16T01:59:17.421Z,6.74
2022-11-16T02:02:21.038Z,6.69
2022-11-16T02:05:35.131Z,6.71
2022-11-16T02:09:13.117Z,6.72
2022-11-16T02:12:48.194Z,6.71
2022-11-16T02:16:12.369Z,6.75
2022-11-16T02:19:59.294Z,6.78
2022-11-16T02:23:34.210Z,6.79
2022-11-16T02:26:47.994Z,6.75
2022-11-16T02:29:53.785Z,6.77
2022-11-16T02:33:04.388Z,6.81
2022-11-16T02:36:12.483Z,6.86
2022-11-16T02:39:19.474Z,6.87
2022-11-16T02:42:29.997Z,6.89
2022-11-16T02:45:36.440Z,6.88
2022-11-16T02:48:47.027Z,6.91
2022-11-16T02:51:52.144Z,6.85
2022-11-16T02:54:56.155Z,6.78
2022-11-16T02:58:05.650Z,6.73
2022-11-16T03:01:15.402Z,6.67
2022-11-16T03:04:28.276Z,6.71
2022-11-16T03:07:37.589Z,6.80
2022-11-16T03:11:01.688Z,6.74
2022-11-16T03:14:12.180Z,6.78
2022-11-16T03:17:24.717Z,6.78
2022-11-16T03:20:30.598Z,6.70
2022-11-16T03:23:34.205Z,6.66
2022-11-16T03:26:54.700Z,6.68
2022-11-16T03:30:23.780Z,6.79
2022-11-16T03:33:37.917Z,6.68
2022-11-16T03:36:43.542Z,6.68
2022-11-16T03:39:48.002Z,6.73
2022-11-16T03:42:52.150Z,6.74
2022-11-16T03:45:55.442Z,6.77
2022-11-16T03:48:59.512Z,6.79
2022-11-16T03:52:06.085Z,6.80
2022-11-16T03:55:09.684Z,6.79
2022-11-16T03:58:12.540Z,6.78
2022-11-16T04:01:15.211Z,6.71
2022-11-16T04:04:36.837Z,6.71
2022-11-16T04:07:58.693Z,6.76
2022-11-16T04:11:19.870Z,6.77
2022-11-16T04:14:43.831Z,6.91
2022-11-16T04:18:08.338Z,6.90
2022-11-16T04:21:47.695Z,6.79
2022-11-16T04:24:59.128Z,6.82
2022-11-16T04:28:16.186Z,6.84
2022-11-16T04:31:59.453Z,6.79
2022-11-16T04:35:21.700Z,6.80
2022-11-16T04:38:24.312Z,6.84
2022-11-16T04:41:46.122Z,6.90
2022-11-16T04:45:07.687Z,7.01
2022-11-16T04:48:19.661Z,6.91
2022-11-16T04:51:22.814Z,6.81
2022-11-16T04:54:25.338Z,6.86
2022-11-16T04:57:28.604Z,6.91
2022-11-16T05:00:32.266Z,6.92
2022-11-16T05:03:35.841Z,6.86
2022-11-16T05:06:38.657Z,6.84
2022-11-16T05:09:49.511Z,6.81
2022-11-16T05:12:52.668Z,6.82
2022-11-16T05:15:55.805Z,6.86
2022-11-16T05:19:17.626Z,6.89
2022-11-16T05:22:20.703Z,6.89
2022-11-16T05:25:25.589Z,6.87
2022-11-16T05:28:29.226Z,6.88
2022-11-16T05:31:36.340Z,6.91
2022-11-16T05:34:44.235Z,6.96
2022-11-16T05:37:47.059Z,6.93
2022-11-16T05:40:49.931Z,6.92
2022-11-16T05:43:55.370Z,7.07
2022-11-16T05:46:58.435Z,7.01
2022-11-16T05:50:01.133Z,7.05
2022-11-16T05:53:09.119Z,6.97
2022-11-16T05:56:14.336Z,7.00
2022-11-16T05:59:20.362Z,7.00
2022-11-16T06:02:25.649Z,7.01
2022-11-16T06:05:28.421Z,7.06
2022-11-16T06:08:32.729Z,7.07
2022-11-16T06:11:39.262Z,7.02
2022-11-16T06:14:42.590Z,7.10
2022-11-16T06:17:45.449Z,7.09
2022-11-16T06:20:48.965Z,7.09
2022-11-16T06:23:52.818Z,7.12
2022-11-16T06:26:55.318Z,7.16
2022-11-16T06:29:58.345Z,7.17
2022-11-16T06:33:00.907Z,7.04
2022-11-16T06:36:03.919Z,7.06
2022-11-16T06:39:07.289Z,7.07
2022-11-16T06:42:12.642Z,7.08
2022-11-16T06:45:16.188Z,7.11
2022-11-16T06:48:25.594Z,7.05
2022-11-16T06:51:28.149Z,7.10
2022-11-16T06:54:31.062Z,7.23
2022-11-16T06:57:35.747Z,7.28
2022-11-16T07:00:40.279Z,7.35
2022-11-16T07:03:45.390Z,7.29
2022-11-16T07:06:50.402Z,7.27
2022-11-16T07:09:55.593Z,7.30
2022-11-16T07:13:04.566Z,7.26
2022-11-16T07:16:10.130Z,7.28
2022-11-16T07:19:15.931Z,7.32
2022-11-16T07:22:19.170Z,7.41
2022-11-16T07:25:22.068Z,7.44
2022-11-16T07:28:24.745Z,7.53
2022-11-16T07:31:27.876Z,7.53
2022-11-16T07:35:08.902Z,7.59
2022-11-16T07:38:17.868Z,7.54
2022-11-16T07:41:21.761Z,7.56
2022-11-16T07:44:44.411Z,7.50
2022-11-16T07:47:47.971Z,7.41
2022-11-16T07:51:06.329Z,7.46
2022-11-16T07:54:15.553Z,7.54
2022-11-16T07:57:18.184Z,7.50
2022-11-16T08:00:21.441Z,7.52
2022-11-16T08:03:34.882Z,7.57
2022-11-16T08:06:40.499Z,7.60
2022-11-16T08:09:43.553Z,7.61
2022-11-16T08:12:50.268Z,7.61
2022-11-16T08:15:54.907Z,7.67
2022-11-16T08:18:58.525Z,7.66
2022-11-16T08:22:01.165Z,7.69
2022-11-16T08:25:07.017Z,7.68
2022-11-16T08:28:09.658Z,7.63
2022-11-16T08:31:19.267Z,7.64
2022-11-16T08:34:24.752Z,7.73
2022-11-16T08:37:33.938Z,7.75
2022-11-16T08:40:37.200Z,7.84
2022-11-16T08:43:40.659Z,7.77
2022-11-16T08:46:43.967Z,7.76
2022-11-16T08:50:03.585Z,7.79
2022-11-16T08:53:06.621Z,7.78
2022-11-16T08:56:13.564Z,7.86
2022-11-16T08:59:18.419Z,7.96
2022-11-16T09:02:27.188Z,8.07
2022-11-16T09:05:30.651Z,8.07
2022-11-16T09:08:34.699Z,8.10
2022-11-16T09:11:37.916Z,8.13
2022-11-16T09:14:40.906Z,8.11
2022-11-16T09:17:43.507Z,8.13
2022-11-16T09:20:46.370Z,8.13
2022-11-16T09:23:49.755Z,8.04
2022-11-16T09:26:52.404Z,8.09
2022-11-16T09:29:54.866Z,8.05
2022-11-16T09:33:01.214Z,8.06
2022-11-16T09:36:09.120Z,8.08
2022-11-16T09:39:30.253Z,8.24
2022-11-16T09:43:01.257Z,8.13
2022-11-16T09:46:25.329Z,8.12
2022-11-16T09:49:35.908Z,8.13
2022-11-16T09:52:43.256Z,8.17
2022-11-16T09:56:00.913Z,8.21
2022-11-16T09:59:15.034Z,8.33
2022-11-16T10:02:27.443Z,8.40
2022-11-16T10:05:43.765Z,8.30
2022-11-16T10:08:49.070Z,8.27
2022-11-16T10:12:09.969Z,8.30
2022-11-16T10:15:28.527Z,8.34
2022-11-16T10:19:03.041Z,8.42
2022-11-16T10:22:43.248Z,8.44
2022-11-16T10:25:52.105Z,8.48
2022-11-16T10:29:25.173Z,8.54
2022-11-16T10:32:36.297Z,8.60
2022-11-16T10:35:43.129Z,8.62
2022-11-16T10:38:46.000Z,8.59
2022-11-16T10:41:51.924Z,8.54
2022-11-16T10:45:06.956Z,8.53
2022-11-16T10:48:22.742Z,8.55
2022-11-16T10:51:25.723Z,8.50
2022-11-16T10:54:28.341Z,8.34
2022-11-16T10:57:55.524Z,8.34
2022-11-16T11:00:59.332Z,8.32
2022-11-16T11:04:16.081Z,8.56
2022-11-16T11:07:30.112Z,8.62
2022-11-16T11:10:38.970Z,8.58
2022-11-16T11:13:41.508Z,8.58
2022-11-16T11:16:44.163Z,8.61
2022-11-16T11:19:48.035Z,8.60
2022-11-16T11:23:02.450Z,8.48
2022-11-16T11:26:05.742Z,8.42
2022-11-16T11:29:24.782Z,8.37
2022-11-16T11:32:35.018Z,8.40
2022-11-16T11:35:38.175Z,8.43
2022-11-16T11:39:03.687Z,8.41
2022-11-16T11:42:21.249Z,8.45
2022-11-16T11:45:57.007Z,8.40
2022-11-16T11:49:06.591Z,8.35
2022-11-16T11:52:19.339Z,8.39
2022-11-16T11:55:22.162Z,8.41
2022-11-16T11:58:34.211Z,8.33
2022-11-16T12:01:47.041Z,8.21
2022-11-16T12:05:10.478Z,8.21
2022-11-16T12:08:48.409Z,8.26
2022-11-16T12:11:57.023Z,8.28
2022-11-16T12:15:16.981Z,8.28
2022-11-16T12:18:41.279Z,8.25
2022-11-16T12:22:05.249Z,8.21
2022-11-16T12:25:34.587Z,8.22
2022-11-16T12:28:51.305Z,8.24
2022-11-16T12:32:15.492Z,8.30
2022-11-16T12:35:47.854Z,8.30
2022-11-16T12:39:13.008Z,8.36
2022-11-16T12:42:24.010Z,8.42
2022-11-16T12:45:46.356Z,8.38
2022-11-16T12:48:57.759Z,8.44
2022-11-16T12:52:11.839Z,8.42
2022-11-16T12:55:34.590Z,8.50
2022-11-16T12:58:59.289Z,8.50
2022-11-16T13:02:21.526Z,8.57
2022-11-16T13:05:49.842Z,8.55
2022-11-16T13:08:52.512Z,8.56
2022-11-16T13:11:58.325Z,8.54
2022-11-16T13:15:03.087Z,8.56
2022-11-16T13:18:11.298Z,8.53
2022-11-16T13:21:20.287Z,8.49
2022-11-16T13:24:48.801Z,8.52
2022-11-16T13:28:00.816Z,8.41
2022-11-16T13:31:38.385Z,8.31
2022-11-16T13:34:41.750Z,8.33
2022-11-16T13:37:46.094Z,8.30
2022-11-16T13:40:48.916Z,8.35
2022-11-16T13:43:51.330Z,8.34
2022-11-16T13:47:06.348Z,8.22
2022-11-16T13:50:19.374Z,8.26
2022-11-16T13:54:43.184Z,8.20
2022-11-16T13:57:33.638Z,8.28
2022-11-16T14:00:40.412Z,8.26
2022-11-16T14:03:43.532Z,8.23
2022-11-16T14:06:46.178Z,8.24
2022-11-16T14:09:49.328Z,8.19
2022-11-16T14:12:53.358Z,8.28
2022-11-16T14:16:22.648Z,8.25
2022-11-16T14:19:47.723Z,8.17
2022-11-16T14:23:00.416Z,8.15
2022-11-16T14:26:02.972Z,8.12
2022-11-16T14:29:20.135Z,8.23
2022-11-16T14:32:36.992Z,8.20
2022-11-16T14:35:52.557Z,8.19
2022-11-16T14:38:55.501Z,8.14
2022-11-16T14:42:03.198Z,8.13
2022-11-16T14:45:11.962Z,8.09
2022-11-16T14:48:25.825Z,8.04
2022-11-16T14:51:35.758Z,8.04
2022-11-16T14:54:46.504Z,8.01
2022-11-16T14:57:49.090Z,8.05
2022-11-16T15:01:04.823Z,8.01
2022-11-16T15:04:09.307Z,8.09
2022-11-16T15:07:14.489Z,8.08
2022-11-16T15:10:24.091Z,8.05
2022-11-16T15:13:27.172Z,8.04
2022-11-16T15:16:29.702Z,8.03
2022-11-16T15:19:32.108Z,8.04
2022-11-16T15:22:42.438Z,8.03
2022-11-16T15:25:56.021Z,7.97
2022-11-16T15:28:59.845Z,7.98
2022-11-16T15:32:02.499Z,7.91
2022-11-16T15:35:05.802Z,8.01
2022-11-16T15:38:26.477Z,7.98
2022-11-16T15:41:29.665Z,7.97
2022-11-16T15:44:33.338Z,7.98
2022-11-16T15:47:37.653Z,8.00
2022-11-16T15:50:40.200Z,7.98
2022-11-16T15:53:48.205Z,8.06
2022-11-16T15:56:53.659Z,8.05
2022-11-16T16:00:00.106Z,7.99
2022-11-16T16:03:06.489Z,7.99
2022-11-16T16:06:15.422Z,8.01
2022-11-16T16:09:34.629Z,7.99
2022-11-16T16:12:47.960Z,8.03
2022-11-16T16:16:11.505Z,7.99
2022-11-16T16:19:35.819Z,8.07
2022-11-16T16:22:38.271Z,8.02
2022-11-16T16:25:42.800Z,8.06
2022-11-16T16:28:48.706Z,7.99
2022-11-16T16:31:51.419Z,7.99
2022-11-16T16:34:56.035Z,7.95
2022-11-16T16:38:01.087Z,7.97
2022-11-16T16:41:05.393Z,7.98
2022-11-16T16:44:15.334Z,8.01
2022-11-16T16:47:20.776Z,8.01
2022-11-16T16:50:23.456Z,8.04
2022-11-16T16:53:25.789Z,8.00
2022-11-16T16:56:28.710Z,7.98
2022-11-16T16:59:31.905Z,8.00
2022-11-16T17:02:37.179Z,7.97
2022-11-16T17:05:39.590Z,7.95
2022-11-16T17:08:42.322Z,7.93
2022-11-16T17:11:47.014Z,7.91
2022-11-16T17:14:52.902Z,7.89
2022-11-16T17:17:57.744Z,7.92
2022-11-16T17:21:08.901Z,7.87
2022-11-16T17:24:11.749Z,7.91
2022-11-16T17:27:14.735Z,7.85
2022-11-16T17:30:17.477Z,7.85
2022-11-16T17:33:20.330Z,7.84
2022-11-16T17:36:23.051Z,7.88
2022-11-16T17:39:26.968Z,7.93
2022-11-16T17:42:29.616Z,7.91
2022-11-16T17:45:33.191Z,7.88
2022-11-16T17:48:36.649Z,7.92
2022-11-16T17:51:39.508Z,7.90
2022-11-16T17:54:42.131Z,7.88
2022-11-16T17:57:45.125Z,7.83
2022-11-16T18:00:49.834Z,7.83
2022-11-16T18:03:52.697Z,7.87
2022-11-16T18:06:56.054Z,7.88
2022-11-16T18:09:59.386Z,7.88
2022-11-16T18:13:02.034Z,7.94
2022-11-16T18:16:12.589Z,7.91
2022-11-16T18:19:17.578Z,7.89
2022-11-16T18:22:20.571Z,8.00
2022-11-16T18:25:24.569Z,8.00
2022-11-16T18:28:27.258Z,7.98
2022-11-16T18:31:32.895Z,7.94
2022-11-16T18:34:35.785Z,7.92
2022-11-16T18:37:38.474Z,7.94
2022-11-16T18:40:41.493Z,7.99
2022-11-16T18:43:55.519Z,7.95
2022-11-16T18:46:58.333Z,7.93
2022-11-16T18:50:01.190Z,7.94
2022-11-16T18:53:04.285Z,7.93
2022-11-16T18:56:08.318Z,7.93
2022-11-16T18:59:11.162Z,7.95
2022-11-16T19:02:14.080Z,7.92
2022-11-16T19:05:17.071Z,7.93
2022-11-16T19:08:20.060Z,7.94
2022-11-16T19:11:24.122Z,7.94
2022-11-16T19:14:26.903Z,7.91
2022-11-16T19:17:30.659Z,7.90
2022-11-16T19:20:33.828Z,7.92
2022-11-16T19:23:42.995Z,7.91
2022-11-16T19:26:45.936Z,7.94
2022-11-16T19:29:50.317Z,7.99
2022-11-16T19:33:00.637Z,7.93
2022-11-16T19:36:08.286Z,7.93
2022-11-16T19:39:11.345Z,7.88
2022-11-16T19:42:14.354Z,7.87
2022-11-16T19:45:17.151Z,7.90
2022-11-16T19:48:20.263Z,7.90
2022-11-16T19:51:28.416Z,7.93
2022-11-16T19:54:31.661Z,8.03
2022-11-16T19:57:34.461Z,8.02
2022-11-16T20:00:37.608Z,8.07
2022-11-16T20:03:41.850Z,8.05
2022-11-16T20:06:44.714Z,8.03
2022-11-16T20:09:53.221Z,8.09
2022-11-16T20:12:57.008Z,8.08
2022-11-16T20:16:01.503Z,8.07
2022-11-16T20:19:06.365Z,8.12
2022-11-16T20:22:09.341Z,8.10
2022-11-16T20:25:13.131Z,8.12
2022-11-16T20:28:15.856Z,8.10
2022-11-16T20:31:21.158Z,8.10
2022-11-16T20:34:24.002Z,8.13
2022-11-16T20:37:26.838Z,8.12
2022-11-16T20:40:29.326Z,8.12
2022-11-16T20:43:32.390Z,8.14
2022-11-16T20:46:37.804Z,8.10
2022-11-16T20:49:40.719Z,8.09
2022-11-16T20:52:47.201Z,8.12
2022-11-16T20:55:53.227Z,8.09
2022-11-16T20:58:56.917Z,8.10
2022-11-16T21:01:59.749Z,8.09
2022-11-16T21:05:02.445Z,8.07
2022-11-16T21:08:05.385Z,8.06
2022-11-16T21:11:54.086Z,8.13
2022-11-16T21:14:56.675Z,8.11
2022-11-16T21:17:59.408Z,8.11
2022-11-16T21:21:04.089Z,8.10
2022-11-16T21:24:10.386Z,8.06
2022-11-16T21:27:12.906Z,8.07
2022-11-16T21:30:15.696Z,8.06
2022-11-16T21:33:18.298Z,8.13
2022-11-16T21:36:26.473Z,8.10
2022-11-16T21:39:29.195Z,8.08
2022-11-16T21:42:31.903Z,8.13
2022-11-16T21:45:35.620Z,8.11
2022-11-16T21:48:38.340Z,8.08
2022-11-16T21:51:40.933Z,8.08
2022-11-16T21:54:50.924Z,8.10
2022-11-16T21:57:53.578Z,8.09
2022-11-16T22:00:57.682Z,8.06
2022-11-16T22:04:18.762Z,8.07
2022-11-16T22:07:36.821Z,8.07
2022-11-16T22:10:42.022Z,8.05
2022-11-16T22:13:44.636Z,8.03
2022-11-16T22:16:47.270Z,8.05
2022-11-16T22:19:49.729Z,8.05
2022-11-16T22:22:52.832Z,8.03
2022-11-16T22:26:00.561Z,8.01
2022-11-16T22:29:03.320Z,8.14
2022-11-16T22:32:05.852Z,8.12
2022-11-16T22:35:09.199Z,8.07
2022-11-16T22:38:11.643Z,8.06
2022-11-16T22:41:14.186Z,8.01
2022-11-16T22:44:16.765Z,7.99
2022-11-16T22:47:19.602Z,8.00
2022-11-16T22:50:24.031Z,8.01
2022-11-16T22:53:26.715Z,8.03
2022-11-16T22:56:31.114Z,8.02
2022-11-16T22:59:33.760Z,8.05
2022-11-16T23:02:36.343Z,7.99
2022-11-16T23:05:38.822Z,8.01
2022-11-16T23:08:41.860Z,8.00
2022-11-16T23:12:02.942Z,8.05
2022-11-16T23:15:24.326Z,7.99
2022-11-16T23:18:26.921Z,7.98
2022-11-16T23:21:48.194Z,8.03
2022-11-16T23:25:09.480Z,8.07
2022-11-16T23:28:16.592Z,8.01
2022-11-16T23:31:19.398Z,7.97
2022-11-16T23:34:22.153Z,7.99
2022-11-16T23:37:24.896Z,7.96
2022-11-16T23:40:33.783Z,7.96
2022-11-16T23:43:54.840Z,7.95
2022-11-16T23:46:57.580Z,7.93
2022-11-16T23:50:00.530Z,7.95
2022-11-16T23:53:03.368Z,7.95
2022-11-16T23:56:06.437Z,7.93
2022-11-16T23:59:08.866Z,7.88
